Time,TemperatureF,DewpointF,PressureIn,WindDirection,WindDirectionDegrees,WindSpeedMPH,WindSpeedGustMPH,Humidity,HourlyPrecipIn,Conditions,Clouds,dailyrainin,SoftwareType,DateUTC
2013-10-08 00:00:00,75.3,74.1,29.90,SE,124,0.0,1.0,96,0.00,,---,0.25,VWS V15.00,2013-10-08 04:00:00,
2013-10-08 00:01:00,75.6,74.4,29.88,SE,144,0.0,2.0,96,0.00,,---,0.25,VWS V14.01,2013-10-08 04:01:00,
2013-10-08 00:02:00,75.6,74.4,29.88,SSE,165,1.0,1.0,96,0.00,,---,0.00,VWS V14.01,2013-10-08 04:02:00,
2013-10-08 00:04:00,75.6,74.4,29.88,SSE,163,1.0,1.0,96,0.00,,---,0.00,VWS V14.01,2013-10-08 04:04:00,
2013-10-08 00:09:00,75.6,74.4,29.87,SSE,166,1.0,1.0,96,0.00,,---,0.00,VWS V14.01,2013-10-08 04:09:00,
2013-10-08 00:14:00,75.7,74.5,29.87,SSE,155,0.0,1.0,96,0.00,,---,0.00,VWS V14.01,2013-10-08 04:14:00,
2013-10-08 00:15:00,75.6,74.4,29.87,SSE,155,0.0,1.0,96,0.00,,---,0.00,VWS V14.01,2013-10-08 04:15:00,
2013-10-08 00:20:00,75.6,74.4,29.88,SSE,150,0.0,1.0,96,0.00,,---,0.00,VWS V14.01,2013-10-08 04:20:00,
2013-10-08 00:25:00,75.6,74.4,29.88,SSE,160,0.0,2.0,96,0.00,,---,0.00,VWS V14.01,2013-10-08 04:25:00,
2013-10-08 00:30:00,75.5,74.3,29.88,SSE,160,0.0,2.0,96,0.00,,---,0.00,VWS V14.01,2013-10-08 04:30:00,
2013-10-08 00:35:00,75.4,74.2,29.88,SSE,160,0.0,0.0,96,0.00,,---,0.00,VWS V14.01,2013-10-08 04:35:00,
2013-10-08 00:40:00,75.3,74.1,29.88,SSE,160,0.0,0.0,96,0.00,,---,0.00,VWS V14.01,2013-10-08 04:40:00,
2013-10-08 00:45:00,75.4,74.2,29.87,SSE,148,0.0,1.0,96,0.00,,---,0.00,VWS V14.01,2013-10-08 04:45:00,
2013-10-08 00:50:00,75.4,74.2,29.87,SSE,160,1.0,1.0,96,0.00,,---,0.00,VWS V14.01,2013-10-08 04:50:00,
2013-10-08 00:56:00,75.4,74.2,29.87,SE,141,1.0,2.0,96,0.00,,---,0.00,VWS V14.01,2013-10-08 04:56:00,
2013-10-08 01:00:00,75.6,74.4,29.88,SE,144,0.0,2.0,96,0.00,,---,0.25,VWS V15.00,2013-10-08 05:00:00,
2013-10-08 01:01:00,75.5,74.3,29.87,SSE,157,0.0,2.0,96,0.00,,---,0.00,VWS V14.01,2013-10-08 05:01:00,
2013-10-08 01:06:00,75.5,74.3,29.87,SSE,157,0.0,0.0,96,0.00,,---,0.00,VWS V14.01,2013-10-08 05:06:00,
2013-10-08 01:11:00,75.4,74.2,29.87,SE,136,0.0,2.0,96,0.00,,---,0.00,VWS V14.01,2013-10-08 05:11:00,
2013-10-08 01:15:00,75.7,74.5,29.87,SSE,155,0.0,1.0,96,0.00,,---,0.00,VWS V15.00,2013-10-08 05:15:00,
2013-10-08 01:16:00,75.4,74.2,29.87,SE,136,0.0,2.0,96,0.00,,---,0.00,VWS V14.01,2013-10-08 05:16:00,
2013-10-08 01:21:00,75.3,74.1,29.87,SE,136,0.0,0.0,96,0.00,,---,0.00,VWS V14.01,2013-10-08 05:21:00,
2013-10-08 01:26:00,75.2,74.0,29.87,SE,143,0.0,1.0,96,0.00,,---,0.00,VWS V14.01,2013-10-08 05:26:00,
2013-10-08 01:30:00,75.5,74.3,29.88,SSE,160,0.0,2.0,96,0.00,,---,0.00,VWS V15.00,2013-10-08 05:30:00,
2013-10-08 01:31:00,75.3,74.4,29.87,SSE,167,1.0,1.0,97,0.00,,---,0.00,VWS V14.01,2013-10-08 05:31:00,
2013-10-08 01:36:00,75.3,74.4,29.87,SSE,164,0.0,1.0,97,0.00,,---,0.00,VWS V14.01,2013-10-08 05:36:00,
2013-10-08 01:41:00,75.3,74.4,29.86,South,183,0.0,1.0,97,0.00,,---,0.00,VWS V14.01,2013-10-08 05:41:00,
2013-10-08 01:45:00,75.4,74.2,29.87,SSE,148,0.0,1.0,96,0.00,,---,0.00,VWS V15.00,2013-10-08 05:45:00,
2013-10-08 01:46:00,75.4,74.5,29.87,South,183,0.0,1.0,97,0.00,,---,0.00,VWS V14.01,2013-10-08 05:46:00,
2013-10-08 01:51:00,75.4,74.5,29.86,SE,136,0.0,0.0,97,0.00,,---,0.00,VWS V14.01,2013-10-08 05:51:00,
2013-10-08 01:56:00,75.4,74.5,29.87,SE,136,0.0,1.0,97,0.00,,---,0.00,VWS V14.01,2013-10-08 05:56:00,
2013-10-08 02:00:00,75.5,74.3,29.87,SSE,157,0.0,2.0,96,0.00,,---,0.00,VWS V15.00,2013-10-08 06:00:00,
2013-10-08 02:01:00,75.4,74.5,29.87,SE,136,0.0,1.0,97,0.00,,---,0.00,VWS V14.01,2013-10-08 06:01:00,
2013-10-08 02:06:00,75.4,74.5,29.87,SE,136,0.0,0.0,97,0.00,,---,0.00,VWS V14.01,2013-10-08 06:06:00,
2013-10-08 02:11:00,75.3,74.4,29.87,SE,136,0.0,0.0,97,0.00,,---,0.00,VWS V14.01,2013-10-08 06:11:00,
2013-10-08 02:15:00,75.3,74.1,29.87,SE,136,0.0,2.0,96,0.00,,---,0.00,VWS V15.00,2013-10-08 06:15:00,
2013-10-08 02:16:00,75.2,74.3,29.87,SE,136,0.0,0.0,97,0.00,,---,0.00,VWS V14.01,2013-10-08 06:16:00,
2013-10-08 02:21:00,75.3,74.4,29.87,SE,136,0.0,1.0,97,0.00,,---,0.00,VWS V14.01,2013-10-08 06:21:00,
2013-10-08 02:26:00,75.4,74.5,29.87,SE,137,0.0,1.0,97,0.00,,---,0.00,VWS V14.01,2013-10-08 06:26:00,
2013-10-08 02:30:00,75.3,74.4,29.87,SSE,167,1.0,1.0,97,0.00,,---,0.00,VWS V15.00,2013-10-08 06:30:00,
2013-10-08 02:31:00,75.4,74.5,29.87,SE,137,0.0,0.0,97,0.00,,---,0.00,VWS V14.01,2013-10-08 06:31:00,
2013-10-08 02:36:00,75.5,74.6,29.87,South,188,2.0,2.0,97,0.00,,---,0.00,VWS V14.01,2013-10-08 06:36:00,
2013-10-08 02:41:00,75.7,75.1,29.87,SE,138,1.0,2.0,98,0.00,,---,0.00,VWS V14.01,2013-10-08 06:41:00,
2013-10-08 02:45:00,75.4,74.5,29.87,South,183,0.0,1.0,97,0.00,,---,0.00,VWS V15.00,2013-10-08 06:45:00,
2013-10-08 02:46:00,75.9,75.0,29.87,SSE,161,0.0,0.0,97,0.00,,---,0.00,VWS V14.01,2013-10-08 06:46:00,
2013-10-08 02:51:00,75.9,75.0,29.87,SSE,160,0.0,1.0,97,0.00,,---,0.00,VWS V14.01,2013-10-08 06:51:00,
2013-10-08 02:56:00,76.1,75.5,29.87,SSW,205,0.0,2.0,98,0.00,,---,0.00,VWS V14.01,2013-10-08 06:56:00,
2013-10-08 03:00:00,75.4,74.5,29.87,SE,136,0.0,1.0,97,0.00,,---,0.00,VWS V15.00,2013-10-08 07:00:00,
2013-10-08 03:02:00,76.2,75.6,29.87,SSE,157,0.0,2.0,98,0.00,,---,0.00,VWS V14.01,2013-10-08 07:02:00,
2013-10-08 03:07:00,76.3,75.4,29.87,South,186,0.0,2.0,97,0.00,,---,0.00,VWS V14.01,2013-10-08 07:07:00,
2013-10-08 03:12:00,76.3,75.4,29.86,WSW,248,0.0,2.0,97,0.00,,---,0.00,VWS V14.01,2013-10-08 07:12:00,
2013-10-08 03:15:00,75.2,74.3,29.87,SE,136,0.0,0.0,97,0.00,,---,0.00,VWS V15.00,2013-10-08 07:15:00,
2013-10-08 03:17:00,76.4,75.5,29.86,East,97,0.0,1.0,97,0.00,,---,0.00,VWS V14.01,2013-10-08 07:17:00,
2013-10-08 03:22:00,76.5,75.6,29.86,SE,132,0.0,1.0,97,0.00,,---,0.00,VWS V14.01,2013-10-08 07:22:00,
2013-10-08 03:27:00,76.4,75.5,29.86,SE,145,0.0,2.0,97,0.00,,---,0.00,VWS V14.01,2013-10-08 07:27:00,
2013-10-08 03:30:00,75.5,74.6,29.87,SE,137,0.0,1.0,97,0.00,,---,0.00,VWS V15.00,2013-10-08 07:30:00,
2013-10-08 03:32:00,76.5,75.6,29.86,South,182,0.0,0.0,97,0.00,,---,0.00,VWS V14.01,2013-10-08 07:32:00,
2013-10-08 03:37:00,76.4,75.5,29.87,SSE,157,0.0,0.0,97,0.00,,---,0.00,VWS V14.01,2013-10-08 07:37:00,
2013-10-08 03:42:00,76.4,75.5,29.86,SSE,157,0.0,1.0,97,0.00,,---,0.00,VWS V14.01,2013-10-08 07:42:00,
2013-10-08 03:45:00,75.9,75.3,29.87,SSE,161,0.0,3.0,98,0.00,,---,0.00,VWS V15.00,2013-10-08 07:45:00,
2013-10-08 03:47:00,76.4,75.5,29.86,SSE,157,0.0,0.0,97,0.00,,---,0.00,VWS V14.01,2013-10-08 07:47:00,
2013-10-08 03:52:00,76.3,75.4,29.86,SSE,157,0.0,0.0,97,0.00,,---,0.00,VWS V14.01,2013-10-08 07:52:00,
2013-10-08 03:57:00,76.3,75.7,29.86,South,188,0.0,1.0,98,0.00,,---,0.00,VWS V14.01,2013-10-08 07:57:00,
2013-10-08 04:00:00,76.2,75.6,29.87,SSE,155,1.0,4.0,98,0.00,,---,0.00,VWS V15.00,2013-10-08 08:00:00,
2013-10-08 04:02:00,76.4,75.8,29.86,SE,141,1.0,2.0,98,0.00,,---,0.00,VWS V14.01,2013-10-08 08:02:00,
2013-10-08 04:07:00,76.4,75.5,29.86,SSE,165,1.0,2.0,97,0.00,,---,0.00,VWS V14.01,2013-10-08 08:07:00,
2013-10-08 04:12:00,76.4,75.5,29.86,SSE,160,0.0,2.0,97,0.00,,---,0.00,VWS V14.01,2013-10-08 08:12:00,
2013-10-08 04:15:00,76.4,75.5,29.86,SSW,206,0.0,4.0,97,0.00,,---,0.00,VWS V15.00,2013-10-08 08:15:00,
2013-10-08 04:17:00,76.4,75.5,29.86,SE,146,0.0,0.0,97,0.00,,---,0.00,VWS V14.01,2013-10-08 08:17:00,
2013-10-08 04:22:00,76.3,75.4,29.86,SSE,147,0.0,0.0,97,0.00,,---,0.00,VWS V14.01,2013-10-08 08:22:00,
2013-10-08 04:27:00,76.3,75.4,29.86,SSE,151,0.0,0.0,97,0.00,,---,0.00,VWS V14.01,2013-10-08 08:27:00,
2013-10-08 04:30:00,76.4,75.5,29.87,South,182,0.0,3.0,97,0.00,,---,0.00,VWS V15.00,2013-10-08 08:30:00,
2013-10-08 04:32:00,76.3,75.7,29.86,East,87,0.0,0.0,98,0.00,,---,0.00,VWS V14.01,2013-10-08 08:32:00,
2013-10-08 04:37:00,76.2,75.6,29.86,East,87,0.0,0.0,98,0.00,,---,0.00,VWS V14.01,2013-10-08 08:37:00,
2013-10-08 04:42:00,76.2,75.6,29.86,East,87,0.0,0.0,98,0.00,,---,0.00,VWS V14.01,2013-10-08 08:42:00,
2013-10-08 04:45:00,76.4,75.5,29.86,SSE,157,0.0,1.0,97,0.00,,---,0.00,VWS V15.00,2013-10-08 08:45:00,
2013-10-08 04:47:00,76.1,75.5,29.86,East,87,0.0,0.0,98,0.00,,---,0.00,VWS V14.01,2013-10-08 08:47:00,
2013-10-08 04:52:00,76.1,75.5,29.86,East,87,0.0,0.0,98,0.00,,---,0.00,VWS V14.01,2013-10-08 08:52:00,
2013-10-08 04:57:00,76.0,75.4,29.86,East,87,0.0,0.0,98,0.00,,---,0.00,VWS V14.01,2013-10-08 08:57:00,
2013-10-08 05:00:00,76.4,75.5,29.86,SSE,167,0.0,1.0,97,0.00,,---,0.00,VWS V15.00,2013-10-08 09:00:00,
2013-10-08 05:03:00,75.8,75.2,29.86,East,87,0.0,0.0,98,0.00,,---,0.00,VWS V14.01,2013-10-08 09:03:00,
2013-10-08 05:08:00,75.8,75.2,29.86,East,87,0.0,0.0,98,0.00,,---,0.00,VWS V14.01,2013-10-08 09:08:00,
2013-10-08 05:13:00,75.7,75.1,29.86,East,87,0.0,0.0,98,0.00,,---,0.00,VWS V14.01,2013-10-08 09:13:00,
2013-10-08 05:15:00,76.4,75.5,29.86,SSE,162,0.0,2.0,97,0.00,,---,0.00,VWS V15.00,2013-10-08 09:15:00,
2013-10-08 05:18:00,75.6,75.0,29.86,East,87,0.0,0.0,98,0.00,,---,0.00,VWS V14.01,2013-10-08 09:18:00,
2013-10-08 05:23:00,75.5,74.9,29.87,East,87,0.0,0.0,98,0.00,,---,0.00,VWS V14.01,2013-10-08 09:23:00,
2013-10-08 05:28:00,75.5,74.9,29.87,East,87,0.0,0.0,98,0.00,,---,0.00,VWS V14.01,2013-10-08 09:28:00,
2013-10-08 05:30:00,76.3,75.7,29.86,East,87,0.0,0.0,98,0.00,,---,0.00,VWS V15.00,2013-10-08 09:30:00,
2013-10-08 05:33:00,75.5,74.9,29.87,East,87,0.0,0.0,98,0.00,,---,0.00,VWS V14.01,2013-10-08 09:33:00,
2013-10-08 05:38:00,75.7,75.1,29.87,East,87,0.0,0.0,98,0.00,,---,0.00,VWS V14.01,2013-10-08 09:38:00,
2013-10-08 05:43:00,75.7,75.1,29.87,East,87,0.0,0.0,98,0.00,,---,0.00,VWS V14.01,2013-10-08 09:43:00,
2013-10-08 05:45:00,76.1,75.5,29.86,East,87,0.0,0.0,98,0.00,,---,0.00,VWS V15.00,2013-10-08 09:45:00,
2013-10-08 05:48:00,75.7,75.1,29.87,East,87,0.0,0.0,98,0.00,,---,0.00,VWS V14.01,2013-10-08 09:48:00,
2013-10-08 05:53:00,75.8,75.2,29.87,East,87,0.0,0.0,98,0.00,,---,0.00,VWS V14.01,2013-10-08 09:53:00,
2013-10-08 05:58:00,75.7,75.1,29.87,East,87,0.0,0.0,98,0.00,,---,0.00,VWS V14.01,2013-10-08 09:58:00,
2013-10-08 06:00:00,75.9,75.3,29.86,East,87,0.0,0.0,98,0.00,,---,0.00,VWS V15.00,2013-10-08 10:00:00,
2013-10-08 06:03:00,75.7,75.1,29.87,East,87,0.0,0.0,98,0.00,,---,0.00,VWS V14.01,2013-10-08 10:03:00,
2013-10-08 06:08:00,75.8,75.5,29.87,East,87,0.0,0.0,99,0.00,,---,0.00,VWS V14.01,2013-10-08 10:08:00,
2013-10-08 06:13:00,75.6,75.0,29.87,East,87,0.0,0.0,98,0.00,,---,0.00,VWS V14.01,2013-10-08 10:13:00,
2013-10-08 06:15:00,75.6,75.0,29.86,East,87,0.0,0.0,98,0.00,,---,0.00,VWS V15.00,2013-10-08 10:15:00,
2013-10-08 06:18:00,75.5,74.9,29.87,East,87,0.0,0.0,98,0.00,,---,0.00,VWS V14.01,2013-10-08 10:18:00,
2013-10-08 06:23:00,75.5,74.9,29.87,East,87,0.0,0.0,98,0.00,,---,0.00,VWS V14.01,2013-10-08 10:23:00,
2013-10-08 06:28:00,75.6,75.3,29.87,East,87,0.0,0.0,99,0.00,,---,0.00,VWS V14.01,2013-10-08 10:28:00,
2013-10-08 06:30:00,75.5,74.9,29.87,East,87,0.0,0.0,98,0.00,,---,0.00,VWS V15.00,2013-10-08 10:30:00,
2013-10-08 06:33:00,75.6,75.0,29.87,East,87,0.0,0.0,98,0.00,,---,0.00,VWS V14.01,2013-10-08 10:33:00,
2013-10-08 06:38:00,75.5,74.9,29.87,East,87,0.0,0.0,98,0.00,,---,0.00,VWS V14.01,2013-10-08 10:38:00,
2013-10-08 06:43:00,75.5,74.9,29.87,East,87,0.0,0.0,98,0.00,,---,0.00,VWS V14.01,2013-10-08 10:43:00,
2013-10-08 06:45:00,75.7,75.1,29.87,East,87,0.0,0.0,98,0.00,,---,0.00,VWS V15.00,2013-10-08 10:45:00,
2013-10-08 06:48:00,75.6,75.3,29.88,East,87,0.0,0.0,99,0.00,,---,0.00,VWS V14.01,2013-10-08 10:48:00,
2013-10-08 06:53:00,75.7,75.4,29.87,East,87,0.0,0.0,99,0.00,,---,0.00,VWS V14.01,2013-10-08 10:53:00,
2013-10-08 06:58:00,75.7,75.4,29.88,East,87,0.0,0.0,99,0.00,,---,0.00,VWS V14.01,2013-10-08 10:58:00,
2013-10-08 07:00:00,75.7,75.1,29.87,East,87,0.0,0.0,98,0.00,,---,0.00,VWS V15.00,2013-10-08 11:00:00,
2013-10-08 07:03:00,75.6,75.3,29.88,East,87,0.0,0.0,99,0.00,,---,0.00,VWS V14.01,2013-10-08 11:03:00,
2013-10-08 07:08:00,75.5,75.2,29.88,East,87,0.0,0.0,99,0.00,,---,0.00,VWS V14.01,2013-10-08 11:08:00,
2013-10-08 07:13:00,75.7,75.4,29.88,East,87,0.0,0.0,99,0.00,,---,0.00,VWS V14.01,2013-10-08 11:13:00,
2013-10-08 07:15:00,75.5,74.9,29.87,East,87,0.0,0.0,98,0.00,,---,0.00,VWS V15.00,2013-10-08 11:15:00,
2013-10-08 07:18:00,75.8,75.5,29.88,East,87,0.0,0.0,99,0.00,,---,0.00,VWS V14.01,2013-10-08 11:18:00,
2013-10-08 07:23:00,75.8,75.5,29.89,East,87,0.0,0.0,99,0.00,,---,0.00,VWS V14.01,2013-10-08 11:23:00,
2013-10-08 07:28:00,75.7,75.4,29.89,East,87,0.0,0.0,99,0.00,,---,0.00,VWS V14.01,2013-10-08 11:28:00,
2013-10-08 07:30:00,75.7,75.4,29.87,East,87,0.0,0.0,99,0.00,,---,0.00,VWS V15.00,2013-10-08 11:30:00,
2013-10-08 07:33:00,75.8,75.5,29.89,East,87,0.0,0.0,99,0.00,,---,0.00,VWS V14.01,2013-10-08 11:33:00,
2013-10-08 07:38:00,75.8,75.5,29.89,East,87,0.0,0.0,99,0.00,,---,0.00,VWS V14.01,2013-10-08 11:38:00,
2013-10-08 07:43:00,76.0,75.7,29.89,East,87,0.0,0.0,99,0.00,,---,0.00,VWS V14.01,2013-10-08 11:43:00,
2013-10-08 07:45:00,75.5,75.2,29.88,East,87,0.0,0.0,99,0.00,,---,0.00,VWS V15.00,2013-10-08 11:45:00,
2013-10-08 07:49:00,76.3,76.0,29.89,East,87,0.0,1.0,99,0.00,,---,0.00,VWS V14.01,2013-10-08 11:49:00,
2013-10-08 07:54:00,76.7,76.4,29.89,East,87,0.0,1.0,99,0.00,,---,0.00,VWS V14.01,2013-10-08 11:54:00,
2013-10-08 07:59:00,77.1,76.8,29.89,West,276,0.0,1.0,99,0.00,,---,0.00,VWS V14.01,2013-10-08 11:59:00,
2013-10-08 08:00:00,75.6,75.3,29.88,East,87,0.0,0.0,99,0.00,,---,0.00,VWS V15.00,2013-10-08 12:00:00,
2013-10-08 08:04:00,77.5,77.2,29.89,West,276,0.0,1.0,99,0.00,,---,0.00,VWS V14.01,2013-10-08 12:04:00,
2013-10-08 08:09:00,77.9,77.6,29.89,West,279,0.0,1.0,99,0.00,,---,0.00,VWS V14.01,2013-10-08 12:09:00,
2013-10-08 08:14:00,78.2,77.9,29.90,WNW,283,0.0,2.0,99,0.00,,---,0.00,VWS V14.01,2013-10-08 12:14:00,
2013-10-08 08:15:00,75.7,75.4,29.88,East,87,0.0,0.0,99,0.00,,---,0.00,VWS V15.00,2013-10-08 12:15:00,
2013-10-08 08:19:00,78.6,78.0,29.90,West,271,0.0,3.0,98,0.00,,---,0.00,VWS V14.01,2013-10-08 12:19:00,
2013-10-08 08:24:00,78.9,78.3,29.90,West,276,1.0,3.0,98,0.00,,---,0.00,VWS V14.01,2013-10-08 12:24:00,
2013-10-08 08:29:00,79.3,78.7,29.90,WNW,295,0.0,3.0,98,0.00,,---,0.00,VWS V14.01,2013-10-08 12:29:00,
2013-10-08 08:30:00,75.7,75.4,29.89,East,87,0.0,0.0,99,0.00,,---,0.00,VWS V15.00,2013-10-08 12:30:00,
2013-10-08 08:34:00,79.6,78.7,29.90,West,260,3.0,4.0,97,0.00,,---,0.00,VWS V14.01,2013-10-08 12:34:00,
2013-10-08 08:39:00,79.9,78.7,29.91,WNW,295,0.0,4.0,96,0.00,,---,0.00,VWS V14.01,2013-10-08 12:39:00,
2013-10-08 08:44:00,80.4,78.8,29.91,WNW,289,0.0,4.0,95,0.00,,---,0.00,VWS V14.01,2013-10-08 12:44:00,
2013-10-08 08:45:00,76.1,75.8,29.89,East,87,0.0,0.0,99,0.00,,---,0.00,VWS V15.00,2013-10-08 12:45:00,
2013-10-08 08:49:00,80.5,78.9,29.91,WNW,285,0.0,2.0,95,0.00,,---,0.00,VWS V14.01,2013-10-08 12:49:00,
2013-10-08 08:54:00,81.0,79.1,29.91,West,274,2.0,2.0,94,0.00,,---,0.00,VWS V14.01,2013-10-08 12:54:00,
2013-10-08 08:59:00,81.4,79.2,29.91,WNW,293,0.0,3.0,93,0.00,,---,0.00,VWS V14.01,2013-10-08 12:59:00,
2013-10-08 09:00:00,77.3,77.0,29.89,West,276,0.0,1.0,99,0.00,,---,0.00,VWS V15.00,2013-10-08 13:00:00,
2013-10-08 09:04:00,81.1,77.9,29.91,NW,310,0.0,4.0,90,0.00,,---,0.00,VWS V14.01,2013-10-08 13:04:00,
2013-10-08 09:09:00,80.6,77.1,29.92,NW,322,1.0,4.0,89,0.00,,---,0.00,VWS V14.01,2013-10-08 13:09:00,
2013-10-08 09:14:00,80.4,77.2,29.92,NW,312,2.0,4.0,90,0.00,,---,0.00,VWS V14.01,2013-10-08 13:14:00,
2013-10-08 09:15:00,78.4,78.1,29.90,West,273,3.0,3.0,99,0.00,,---,0.00,VWS V15.00,2013-10-08 13:15:00,
2013-10-08 09:19:00,80.2,77.0,29.92,WNW,289,2.0,3.0,90,0.00,,---,0.00,VWS V14.01,2013-10-08 13:19:00,
2013-10-08 09:24:00,80.1,76.9,29.92,NW,326,1.0,3.0,90,0.00,,---,0.00,VWS V14.01,2013-10-08 13:24:00,
2013-10-08 09:29:00,80.0,76.8,29.92,NNW,331,0.0,4.0,90,0.00,,---,0.00,VWS V14.01,2013-10-08 13:29:00,
2013-10-08 09:30:00,79.5,78.6,29.90,West,262,0.0,3.0,97,0.00,,---,0.00,VWS V15.00,2013-10-08 13:30:00,
2013-10-08 09:34:00,79.9,76.7,29.92,NW,326,0.0,2.0,90,0.00,,---,0.00,VWS V14.01,2013-10-08 13:34:00,
2013-10-08 09:39:00,80.0,77.1,29.92,West,270,1.0,2.0,91,0.00,,---,0.00,VWS V14.01,2013-10-08 13:39:00,
2013-10-08 09:44:00,80.7,77.2,29.92,WNW,300,0.0,3.0,89,0.00,,---,0.00,VWS V14.01,2013-10-08 13:44:00,
2013-10-08 09:45:00,80.5,78.9,29.91,NW,314,0.0,4.0,95,0.00,,---,0.00,VWS V15.00,2013-10-08 13:45:00,
2013-10-08 09:49:00,81.7,77.8,29.92,WNW,302,2.0,4.0,88,0.00,,---,0.00,VWS V14.01,2013-10-08 13:49:00,
2013-10-08 09:54:00,82.1,77.2,29.93,WNW,295,3.0,7.0,85,0.00,,---,0.00,VWS V14.01,2013-10-08 13:54:00,
2013-10-08 09:59:00,81.9,76.6,29.92,NW,306,4.0,7.0,84,0.00,,---,0.00,VWS V14.01,2013-10-08 13:59:00,
2013-10-08 10:00:00,81.4,79.2,29.91,NNW,337,2.0,3.0,93,0.00,,---,0.00,VWS V15.00,2013-10-08 14:00:00,
2013-10-08 10:04:00,82.4,77.4,29.92,WNW,303,1.0,5.0,85,0.00,,---,0.00,VWS V14.01,2013-10-08 14:04:00,
2013-10-08 10:09:00,82.9,77.2,29.92,NNW,335,1.0,8.0,83,0.00,,---,0.00,VWS V14.01,2013-10-08 14:09:00,
2013-10-08 10:14:00,83.7,78.0,29.92,NW,325,3.0,8.0,83,0.00,,---,0.00,VWS V14.01,2013-10-08 14:14:00,
2013-10-08 10:15:00,80.3,76.8,29.92,NW,304,0.0,4.0,89,0.00,,---,0.00,VWS V15.00,2013-10-08 14:15:00,
2013-10-08 10:19:00,84.2,77.7,29.92,WNW,284,3.0,3.0,81,0.00,,---,0.00,VWS V14.01,2013-10-08 14:19:00,
2013-10-08 10:24:00,84.1,77.3,29.92,West,274,0.0,4.0,80,0.00,,---,0.00,VWS V14.01,2013-10-08 14:24:00,
2013-10-08 10:29:00,84.1,77.3,29.92,WNW,285,4.0,6.0,80,0.00,,---,0.00,VWS V14.01,2013-10-08 14:29:00,
2013-10-08 10:30:00,80.0,76.8,29.92,NNW,330,0.0,4.0,90,0.00,,---,0.00,VWS V15.00,2013-10-08 14:30:00,
2013-10-08 10:34:00,83.9,77.1,29.92,West,265,1.0,5.0,80,0.00,,---,0.00,VWS V14.01,2013-10-08 14:34:00,
2013-10-08 10:39:00,84.5,77.3,29.92,WNW,293,2.0,5.0,79,0.00,,---,0.00,VWS V14.01,2013-10-08 14:39:00,
2013-10-08 10:44:00,84.6,76.6,29.93,North,356,2.0,6.0,77,0.00,,---,0.00,VWS V14.01,2013-10-08 14:44:00,
2013-10-08 10:45:00,81.0,77.5,29.92,West,275,0.0,5.0,89,0.00,,---,0.00,VWS V15.00,2013-10-08 14:45:00,
2013-10-08 10:49:00,84.8,76.4,29.93,West,274,4.0,4.0,76,0.00,,---,0.00,VWS V14.01,2013-10-08 14:49:00,
2013-10-08 10:54:00,85.2,76.8,29.93,SW,227,1.0,6.0,76,0.00,,---,0.00,VWS V14.01,2013-10-08 14:54:00,
2013-10-08 11:00:00,85.4,77.0,29.93,NW,311,1.0,7.0,76,0.00,,---,0.00,VWS V14.01,2013-10-08 15:00:00,
2013-10-08 11:05:00,85.5,77.1,29.93,WNW,293,2.0,10.0,76,0.00,,---,0.00,VWS V14.01,2013-10-08 15:05:00,
2013-10-08 11:10:00,85.3,76.5,29.93,NW,308,1.0,10.0,75,0.00,,---,0.00,VWS V14.01,2013-10-08 15:10:00,
2013-10-08 11:15:00,85.5,76.3,29.93,WNW,293,2.0,10.0,74,0.00,,---,0.00,VWS V14.01,2013-10-08 15:15:00,
2013-10-08 11:20:00,85.7,76.1,29.93,West,275,3.0,5.0,73,0.00,,---,0.00,VWS V14.01,2013-10-08 15:20:00,
2013-10-08 11:25:00,85.8,76.2,29.93,West,268,0.0,5.0,73,0.00,,---,0.00,VWS V14.01,2013-10-08 15:25:00,
2013-10-08 11:30:00,86.6,76.5,29.93,NW,326,2.0,5.0,72,0.00,,---,0.00,VWS V14.01,2013-10-08 15:30:00,
2013-10-08 11:35:00,86.5,76.8,29.92,West,271,1.0,4.0,73,0.00,,---,0.00,VWS V14.01,2013-10-08 15:35:00,
2013-10-08 11:40:00,86.9,76.4,29.92,WSW,250,3.0,5.0,71,0.00,,---,0.00,VWS V14.01,2013-10-08 15:40:00,
2013-10-08 11:45:00,86.9,75.9,29.92,WNW,298,0.0,7.0,70,0.00,,---,0.00,VWS V14.01,2013-10-08 15:45:00,
2013-10-08 11:50:00,86.7,76.2,29.92,NW,323,1.0,4.0,71,0.00,,---,0.00,VWS V14.01,2013-10-08 15:50:00,
2013-10-08 11:55:00,87.0,76.5,29.92,WSW,252,2.0,8.0,71,0.00,,---,0.00,VWS V14.01,2013-10-08 15:55:00,
2013-10-08 12:00:00,86.6,76.5,29.92,NW,312,1.0,8.0,72,0.00,,---,0.00,VWS V14.01,2013-10-08 16:00:00,
2013-10-08 12:05:00,86.8,76.3,29.92,NW,316,1.0,8.0,71,0.00,,---,0.00,VWS V14.01,2013-10-08 16:05:00,
2013-10-08 12:10:00,86.5,76.0,29.92,WNW,287,2.0,8.0,71,0.00,,---,0.00,VWS V14.01,2013-10-08 16:10:00,
2013-10-08 12:15:00,86.8,76.3,29.92,NW,314,1.0,8.0,71,0.00,,---,0.00,VWS V14.01,2013-10-08 16:15:00,
2013-10-08 12:20:00,87.2,76.7,29.91,NW,316,4.0,5.0,71,0.00,,---,0.00,VWS V14.01,2013-10-08 16:20:00,
2013-10-08 12:25:00,87.5,76.5,29.91,West,264,1.0,10.0,70,0.00,,---,0.00,VWS V14.01,2013-10-08 16:25:00,
2013-10-08 12:30:00,87.3,76.3,29.91,West,259,3.0,10.0,70,0.00,,---,0.00,VWS V14.01,2013-10-08 16:30:00,
2013-10-08 12:35:00,86.6,75.7,29.91,NW,319,2.0,9.0,70,0.00,,---,0.00,VWS V14.01,2013-10-08 16:35:00,
2013-10-08 12:40:00,86.6,75.7,29.91,NW,305,2.0,9.0,70,0.00,,---,0.00,VWS V14.01,2013-10-08 16:40:00,
2013-10-08 12:45:00,86.7,76.2,29.91,NNW,330,5.0,9.0,71,0.00,,---,0.00,VWS V14.01,2013-10-08 16:45:00,
2013-10-08 12:50:00,86.9,75.9,29.91,WNW,295,2.0,4.0,70,0.00,,---,0.00,VWS V14.01,2013-10-08 16:50:00,
2013-10-08 12:55:00,86.6,76.5,29.91,NW,307,0.0,5.0,72,0.00,,---,0.00,VWS V14.01,2013-10-08 16:55:00,
2013-10-08 13:00:00,87.2,75.8,29.91,ESE,103,2.0,5.0,69,0.00,,---,0.00,VWS V14.01,2013-10-08 17:00:00,
2013-10-08 13:05:00,87.7,76.3,29.91,WNW,297,2.0,9.0,69,0.00,,---,0.00,VWS V14.01,2013-10-08 17:05:00,
2013-10-08 13:10:00,87.9,75.6,29.91,NW,310,2.0,9.0,67,0.00,,---,0.00,VWS V14.01,2013-10-08 17:10:00,
2013-10-08 13:15:00,88.2,77.2,29.90,NW,309,2.0,9.0,70,0.00,,---,0.00,VWS V14.01,2013-10-08 17:15:00,
2013-10-08 13:20:00,88.6,75.8,29.90,West,264,6.0,7.0,66,0.00,,---,0.00,VWS V14.01,2013-10-08 17:20:00,
2013-10-08 13:25:00,88.6,76.2,29.91,NW,304,6.0,7.0,67,0.00,,---,0.00,VWS V14.01,2013-10-08 17:25:00,
2013-10-08 13:30:00,88.8,77.3,29.90,WNW,295,2.0,7.0,69,0.00,,---,0.00,VWS V14.01,2013-10-08 17:30:00,
2013-10-08 13:35:00,89.2,78.6,29.90,WNW,290,0.0,5.0,71,0.00,,---,0.00,VWS V14.01,2013-10-08 17:35:00,
2013-10-08 13:40:00,89.2,76.4,29.90,WNW,293,1.0,7.0,66,0.00,,---,0.00,VWS V14.01,2013-10-08 17:40:00,
2013-10-08 13:45:00,89.2,75.4,29.90,NW,307,2.0,7.0,64,0.00,,---,0.00,VWS V14.01,2013-10-08 17:45:00,
2013-10-08 13:50:00,88.7,75.9,29.89,NW,322,2.0,6.0,66,0.00,,---,0.00,VWS V14.01,2013-10-08 17:50:00,
2013-10-08 13:55:00,88.7,76.8,29.89,WNW,290,2.0,6.0,68,0.00,,---,0.00,VWS V14.01,2013-10-08 17:55:00,
2013-10-08 14:00:00,88.7,75.0,29.89,WNW,293,1.0,7.0,64,0.00,,---,0.00,VWS V14.01,2013-10-08 18:00:00,
2013-10-08 14:05:00,88.7,75.0,29.88,NNW,327,4.0,4.0,64,0.00,,---,0.00,VWS V14.01,2013-10-08 18:05:00,
2013-10-08 14:11:00,89.1,76.3,29.88,West,266,3.0,7.0,66,0.00,,---,0.00,VWS V14.01,2013-10-08 18:11:00,
2013-10-08 14:15:00,88.3,76.8,29.90,WSW,249,1.0,9.0,69,0.00,,---,0.00,VWS V15.00,2013-10-08 18:15:00,
2013-10-08 14:16:00,89.8,76.5,29.88,NNW,327,3.0,7.0,65,0.00,,---,0.00,VWS V14.01,2013-10-08 18:16:00,
2013-10-08 14:21:00,89.9,75.6,29.88,WNW,284,3.0,6.0,63,0.00,,---,0.00,VWS V14.01,2013-10-08 18:21:00,
2013-10-08 14:26:00,89.7,75.4,29.88,WNW,288,2.0,9.0,63,0.00,,---,0.00,VWS V14.01,2013-10-08 18:26:00,
2013-10-08 14:30:00,88.8,76.0,29.90,NNW,333,2.0,7.0,66,0.00,,---,0.00,VWS V15.00,2013-10-08 18:30:00,
2013-10-08 14:31:00,89.6,75.8,29.88,West,270,1.0,9.0,64,0.00,,---,0.00,VWS V14.01,2013-10-08 18:31:00,
2013-10-08 14:36:00,90.4,77.0,29.88,SW,235,1.0,3.0,65,0.00,,---,0.00,VWS V14.01,2013-10-08 18:36:00,
2013-10-08 14:41:00,90.7,76.4,29.87,West,274,2.0,5.0,63,0.00,,---,0.00,VWS V14.01,2013-10-08 18:41:00,
2013-10-08 14:45:00,89.1,75.3,29.90,NNW,331,3.0,7.0,64,0.00,,---,0.00,VWS V15.00,2013-10-08 18:45:00,
2013-10-08 14:46:00,90.4,74.1,29.87,West,264,5.0,8.0,59,0.00,,---,0.00,VWS V14.01,2013-10-08 18:46:00,
2013-10-08 14:51:00,90.2,75.4,29.87,NW,326,0.0,4.0,62,0.00,,---,0.00,VWS V14.01,2013-10-08 18:51:00,
2013-10-08 14:56:00,89.6,74.9,29.87,WSW,249,0.0,4.0,62,0.00,,---,0.00,VWS V14.01,2013-10-08 18:56:00,
2013-10-08 15:00:00,88.7,75.9,29.89,NNW,335,2.0,7.0,66,0.00,,---,0.00,VWS V15.00,2013-10-08 19:00:00,
2013-10-08 15:01:00,89.7,75.9,29.87,NE,50,0.0,4.0,64,0.00,,---,0.00,VWS V14.01,2013-10-08 19:01:00,
2013-10-08 15:06:00,90.1,75.3,29.87,West,275,3.0,4.0,62,0.00,,---,0.00,VWS V14.01,2013-10-08 19:06:00,
2013-10-08 15:11:00,90.1,75.3,29.87,WNW,284,0.0,6.0,62,0.00,,---,0.00,VWS V14.01,2013-10-08 19:11:00,
2013-10-08 15:15:00,89.9,76.1,29.88,North,6,0.0,7.0,64,0.00,,---,0.00,VWS V15.00,2013-10-08 19:15:00,
2013-10-08 15:16:00,90.7,75.4,29.87,NW,316,1.0,6.0,61,0.00,,---,0.00,VWS V14.01,2013-10-08 19:16:00,
2013-10-08 15:21:00,90.9,74.1,29.87,WSW,257,2.0,8.0,58,0.00,,---,0.00,VWS V14.01,2013-10-08 19:21:00,
2013-10-08 15:26:00,90.4,74.1,29.87,WNW,294,3.0,8.0,59,0.00,,---,0.00,VWS V14.01,2013-10-08 19:26:00,
2013-10-08 15:30:00,89.6,75.8,29.88,NNW,328,0.0,9.0,64,0.00,,---,0.00,VWS V15.00,2013-10-08 19:30:00,
2013-10-08 15:31:00,90.4,75.6,29.87,WSW,257,0.0,8.0,62,0.00,,---,0.00,VWS V14.01,2013-10-08 19:31:00,
2013-10-08 15:36:00,90.1,75.3,29.87,WNW,290,1.0,3.0,62,0.00,,---,0.00,VWS V14.01,2013-10-08 19:36:00,
2013-10-08 15:41:00,89.6,74.4,29.87,NW,305,2.0,4.0,61,0.00,,---,0.00,VWS V14.01,2013-10-08 19:41:00,
2013-10-08 15:45:00,90.3,74.5,29.87,WSW,248,2.0,9.0,60,0.00,,---,0.00,VWS V15.00,2013-10-08 19:45:00,
2013-10-08 15:46:00,89.6,74.9,29.87,West,274,4.0,4.0,62,0.00,,---,0.00,VWS V14.01,2013-10-08 19:46:00,
2013-10-08 15:51:00,89.6,75.8,29.87,NW,306,0.0,2.0,64,0.00,,---,0.00,VWS V14.01,2013-10-08 19:51:00,
2013-10-08 15:56:00,89.9,75.6,29.87,West,262,1.0,3.0,63,0.00,,---,0.00,VWS V14.01,2013-10-08 19:56:00,
2013-10-08 16:00:00,89.8,76.0,29.87,West,281,3.0,4.0,64,0.00,,---,0.00,VWS V15.00,2013-10-08 20:00:00,
2013-10-08 16:01:00,90.4,75.6,29.87,NW,318,3.0,6.0,62,0.00,,---,0.00,VWS V14.01,2013-10-08 20:01:00,
2013-10-08 16:06:00,90.7,74.9,29.86,WNW,302,0.0,3.0,60,0.00,,---,0.00,VWS V14.01,2013-10-08 20:06:00,
2013-10-08 16:11:00,91.3,75.0,29.86,NW,315,3.0,6.0,59,0.00,,---,0.00,VWS V14.01,2013-10-08 20:11:00,
2013-10-08 16:15:00,90.8,75.5,29.87,NW,316,0.0,6.0,61,0.00,,---,0.00,VWS V15.00,2013-10-08 20:15:00,
2013-10-08 16:16:00,91.5,74.7,29.86,West,266,0.0,1.0,58,0.00,,---,0.00,VWS V14.01,2013-10-08 20:16:00,
2013-10-08 16:21:00,90.9,74.6,29.86,WNW,286,0.0,5.0,59,0.00,,---,0.00,VWS V14.01,2013-10-08 20:21:00,
2013-10-08 16:26:00,90.5,74.2,29.87,NW,312,1.0,5.0,59,0.00,,---,0.00,VWS V14.01,2013-10-08 20:26:00,
2013-10-08 16:30:00,90.4,75.6,29.87,WSW,256,0.0,8.0,62,0.00,,---,0.00,VWS V15.00,2013-10-08 20:30:00,
2013-10-08 16:31:00,89.9,74.7,29.87,NW,316,5.0,5.0,61,0.00,,---,0.00,VWS V14.01,2013-10-08 20:31:00,
2013-10-08 16:36:00,89.8,74.6,29.87,WNW,302,2.0,6.0,61,0.00,,---,0.00,VWS V14.01,2013-10-08 20:36:00,
2013-10-08 16:41:00,89.3,73.6,29.87,NW,323,1.0,6.0,60,0.00,,---,0.00,VWS V14.01,2013-10-08 20:41:00,
2013-10-08 16:45:00,89.6,74.9,29.87,West,266,2.0,4.0,62,0.00,,---,0.00,VWS V15.00,2013-10-08 20:45:00,
2013-10-08 16:46:00,88.7,74.0,29.87,WNW,303,5.0,6.0,62,0.00,,---,0.00,VWS V14.01,2013-10-08 20:46:00,
2013-10-08 16:51:00,88.4,74.7,29.87,NW,319,0.0,6.0,64,0.00,,---,0.00,VWS V14.01,2013-10-08 20:51:00,
2013-10-08 16:56:00,88.3,74.6,29.88,NW,311,3.0,6.0,64,0.00,,---,0.00,VWS V14.01,2013-10-08 20:56:00,
2013-10-08 17:00:00,90.4,75.6,29.87,NNW,332,2.0,6.0,62,0.00,,---,0.00,VWS V15.00,2013-10-08 21:00:00,
2013-10-08 17:02:00,88.1,74.4,29.88,WNW,282,5.0,8.0,64,0.00,,---,0.00,VWS V14.01,2013-10-08 21:02:00,
2013-10-08 17:07:00,87.7,74.5,29.88,NW,323,4.0,8.0,65,0.00,,---,0.00,VWS V14.01,2013-10-08 21:07:00,
2013-10-08 17:12:00,87.5,74.3,29.87,NW,314,1.0,8.0,65,0.00,,---,0.00,VWS V14.01,2013-10-08 21:12:00,
2013-10-08 17:15:00,91.5,74.7,29.86,West,266,1.0,6.0,58,0.00,,---,0.00,VWS V15.00,2013-10-08 21:15:00,
2013-10-08 17:17:00,87.5,74.8,29.87,NW,308,0.0,1.0,66,0.00,,---,0.00,VWS V14.01,2013-10-08 21:17:00,
2013-10-08 17:22:00,87.7,74.9,29.87,NW,318,0.0,5.0,66,0.00,,---,0.00,VWS V14.01,2013-10-08 21:22:00,
2013-10-08 17:27:00,87.9,74.2,29.87,WNW,295,2.0,6.0,64,0.00,,---,0.00,VWS V14.01,2013-10-08 21:27:00,
2013-10-08 17:30:00,89.9,74.7,29.87,NW,311,5.0,5.0,61,0.00,,---,0.00,VWS V15.00,2013-10-08 21:30:00,
2013-10-08 17:32:00,88.6,74.4,29.87,NW,325,2.0,3.0,63,0.00,,---,0.00,VWS V14.01,2013-10-08 21:32:00,
2013-10-08 17:37:00,88.9,73.7,29.87,NW,308,2.0,9.0,61,0.00,,---,0.00,VWS V14.01,2013-10-08 21:37:00,
2013-10-08 17:42:00,88.8,74.1,29.87,NW,316,1.0,9.0,62,0.00,,---,0.00,VWS V14.01,2013-10-08 21:42:00,
2013-10-08 17:45:00,88.8,74.1,29.87,NNW,340,5.0,6.0,62,0.00,,---,0.00,VWS V15.00,2013-10-08 21:45:00,
2013-10-08 17:47:00,88.2,73.6,29.86,NNW,328,1.0,2.0,62,0.00,,---,0.00,VWS V14.01,2013-10-08 21:47:00,
2013-10-08 17:52:00,87.9,74.2,29.87,NW,321,2.0,3.0,64,0.00,,---,0.00,VWS V14.01,2013-10-08 21:52:00,
2013-10-08 17:57:00,88.1,74.4,29.87,NNW,342,3.0,3.0,64,0.00,,---,0.00,VWS V14.01,2013-10-08 21:57:00,
2013-10-08 18:00:00,88.1,74.4,29.88,NW,314,6.0,8.0,64,0.00,,---,0.00,VWS V15.00,2013-10-08 22:00:00,
2013-10-08 18:02:00,87.9,73.7,29.87,NW,309,3.0,5.0,63,0.00,,---,0.00,VWS V14.01,2013-10-08 22:02:00,
2013-10-08 18:07:00,87.5,74.3,29.87,WNW,300,1.0,6.0,65,0.00,,---,0.00,VWS V14.01,2013-10-08 22:07:00,
2013-10-08 18:12:00,87.3,73.6,29.87,NW,317,1.0,6.0,64,0.00,,---,0.00,VWS V14.01,2013-10-08 22:12:00,
2013-10-08 18:15:00,87.5,74.8,29.87,NW,308,0.0,8.0,66,0.00,,---,0.00,VWS V15.00,2013-10-08 22:15:00,
2013-10-08 18:17:00,87.1,73.9,29.87,NW,306,2.0,2.0,65,0.00,,---,0.00,VWS V14.01,2013-10-08 22:17:00,
2013-10-08 18:22:00,86.9,74.6,29.88,NW,312,2.0,4.0,67,0.00,,---,0.00,VWS V14.01,2013-10-08 22:22:00,
2013-10-08 18:27:00,86.7,74.4,29.88,NW,309,2.0,6.0,67,0.00,,---,0.00,VWS V14.01,2013-10-08 22:27:00,
2013-10-08 18:30:00,88.5,74.8,29.86,NW,305,3.0,8.0,64,0.00,,---,0.00,VWS V15.00,2013-10-08 22:30:00,
2013-10-08 18:32:00,86.6,74.3,29.88,NW,314,1.0,2.0,67,0.00,,---,0.00,VWS V14.01,2013-10-08 22:32:00,
2013-10-08 18:37:00,86.5,74.7,29.88,NW,315,1.0,4.0,68,0.00,,---,0.00,VWS V14.01,2013-10-08 22:37:00,
2013-10-08 18:42:00,86.4,74.6,29.88,NW,314,1.0,4.0,68,0.00,,---,0.00,VWS V14.01,2013-10-08 22:42:00,
2013-10-08 18:45:00,88.3,73.6,29.86,NW,326,2.0,9.0,62,0.00,,---,0.00,VWS V15.00,2013-10-08 22:45:00,
2013-10-08 18:47:00,86.2,74.4,29.88,NW,304,1.0,4.0,68,0.00,,---,0.00,VWS V14.01,2013-10-08 22:47:00,
2013-10-08 18:52:00,86.1,74.3,29.88,NW,307,0.0,5.0,68,0.00,,---,0.00,VWS V14.01,2013-10-08 22:52:00,
2013-10-08 18:57:00,85.9,73.7,29.89,NW,311,1.0,5.0,67,0.00,,---,0.00,VWS V14.01,2013-10-08 22:57:00,
2013-10-08 19:00:00,87.9,73.7,29.87,NNW,328,2.0,4.0,63,0.00,,---,0.00,VWS V15.00,2013-10-08 23:00:00,
2013-10-08 19:02:00,85.9,74.1,29.89,WSW,256,2.0,2.0,68,0.00,,---,0.00,VWS V14.01,2013-10-08 23:02:00,
2013-10-08 19:07:00,85.8,74.0,29.89,WNW,289,1.0,5.0,68,0.00,,---,0.00,VWS V14.01,2013-10-08 23:07:00,
2013-10-08 19:12:00,85.5,74.2,29.89,NW,316,0.0,5.0,69,0.00,,---,0.00,VWS V14.01,2013-10-08 23:12:00,
2013-10-08 19:15:00,87.1,74.4,29.87,NW,314,2.0,6.0,66,0.00,,---,0.00,VWS V15.00,2013-10-08 23:15:00,
2013-10-08 19:17:00,85.2,74.3,29.89,NW,311,0.0,0.0,70,0.00,,---,0.00,VWS V14.01,2013-10-08 23:17:00,
2013-10-08 19:22:00,84.9,74.4,29.89,West,274,0.0,1.0,71,0.00,,---,0.00,VWS V14.01,2013-10-08 23:22:00,
2013-10-08 19:27:00,84.6,74.2,29.89,NNW,330,0.0,2.0,71,0.00,,---,0.00,VWS V14.01,2013-10-08 23:27:00,
2013-10-08 19:30:00,86.6,74.3,29.88,NW,314,2.0,6.0,67,0.00,,---,0.00,VWS V15.00,2013-10-08 23:30:00,
2013-10-08 19:32:00,84.6,74.2,29.89,WNW,293,2.0,2.0,71,0.00,,---,0.00,VWS V14.01,2013-10-08 23:32:00,
2013-10-08 19:38:00,84.5,74.5,29.89,WNW,302,2.0,2.0,72,0.00,,---,0.00,VWS V14.01,2013-10-08 23:38:00,
2013-10-08 19:43:00,84.3,73.9,29.89,NW,315,0.0,6.0,71,0.00,,---,0.00,VWS V14.01,2013-10-08 23:43:00,
2013-10-08 19:45:00,86.2,74.8,29.88,West,260,4.0,4.0,69,0.00,,---,0.00,VWS V15.00,2013-10-08 23:45:00,
2013-10-08 19:48:00,84.2,73.8,29.90,NW,307,0.0,5.0,71,0.00,,---,0.00,VWS V14.01,2013-10-08 23:48:00,
2013-10-08 19:53:00,84.0,73.6,29.90,NW,322,0.0,5.0,71,0.00,,---,0.00,VWS V14.01,2013-10-08 23:53:00,
2013-10-08 19:58:00,83.8,73.8,29.90,NW,317,1.0,5.0,72,0.00,,---,0.00,VWS V14.01,2013-10-08 23:58:00,
2013-10-08 20:00:00,85.9,73.7,29.89,NW,304,0.0,5.0,67,0.00,,---,0.00,VWS V15.00,2013-10-09 00:00:00,
2013-10-08 20:03:00,83.6,73.6,29.90,NW,321,2.0,2.0,72,0.00,,---,0.00,VWS V14.01,2013-10-09 00:03:00,
2013-10-08 20:08:00,83.3,73.8,29.90,NW,321,3.0,3.0,73,0.00,,---,0.00,VWS V14.01,2013-10-09 00:08:00,
2013-10-08 20:13:00,83.1,73.6,29.91,NW,319,1.0,4.0,73,0.00,,---,0.00,VWS V14.01,2013-10-09 00:13:00,
2013-10-08 20:15:00,85.3,74.0,29.89,NW,316,0.0,5.0,69,0.00,,---,0.00,VWS V15.00,2013-10-09 00:15:00,
2013-10-08 20:18:00,83.0,73.9,29.91,NW,315,0.0,3.0,74,0.00,,---,0.00,VWS V14.01,2013-10-09 00:18:00,
2013-10-08 20:23:00,82.8,73.7,29.91,NW,323,0.0,4.0,74,0.00,,---,0.00,VWS V14.01,2013-10-09 00:23:00,
2013-10-08 20:28:00,82.6,73.5,29.91,NW,323,3.0,4.0,74,0.00,,---,0.00,VWS V14.01,2013-10-09 00:28:00,
2013-10-08 20:30:00,84.6,74.2,29.89,WNW,284,1.0,2.0,71,0.00,,---,0.00,VWS V15.00,2013-10-09 00:30:00,
2013-10-08 20:33:00,82.4,73.7,29.91,NNW,330,0.0,2.0,75,0.00,,---,0.00,VWS V14.01,2013-10-09 00:33:00,
2013-10-08 20:38:00,82.2,73.5,29.92,NW,319,2.0,5.0,75,0.00,,---,0.00,VWS V14.01,2013-10-09 00:38:00,
2013-10-08 20:43:00,82.0,73.3,29.92,NW,319,2.0,5.0,75,0.00,,---,0.00,VWS V14.01,2013-10-09 00:43:00,
2013-10-08 20:45:00,84.3,73.9,29.89,NW,311,1.0,6.0,71,0.00,,---,0.00,VWS V15.00,2013-10-09 00:45:00,
2013-10-08 20:48:00,81.9,73.2,29.92,WNW,297,1.0,4.0,75,0.00,,---,0.00,VWS V14.01,2013-10-09 00:48:00,
2013-10-08 20:53:00,81.7,73.0,29.92,NW,321,0.0,4.0,75,0.00,,---,0.00,VWS V14.01,2013-10-09 00:53:00,
2013-10-08 20:58:00,81.5,72.8,29.92,WNW,302,1.0,4.0,75,0.00,,---,0.00,VWS V14.01,2013-10-09 00:58:00,
2013-10-08 21:00:00,83.6,73.6,29.90,NW,317,1.0,5.0,72,0.00,,---,0.00,VWS V15.00,2013-10-09 01:00:00,
2013-10-08 21:03:00,81.4,72.7,29.92,NW,318,3.0,3.0,75,0.00,,---,0.00,VWS V14.01,2013-10-09 01:03:00,
2013-10-08 21:08:00,81.2,72.9,29.92,NW,316,1.0,5.0,76,0.00,,---,0.00,VWS V14.01,2013-10-09 01:08:00,
2013-10-08 21:13:00,81.0,72.7,29.92,NW,306,2.0,5.0,76,0.00,,---,0.00,VWS V14.01,2013-10-09 01:13:00,
2013-10-08 21:15:00,83.0,73.9,29.91,NW,315,0.0,4.0,74,0.00,,---,0.00,VWS V15.00,2013-10-09 01:15:00,
2013-10-08 21:18:00,80.9,73.0,29.93,NW,316,0.0,2.0,77,0.00,,---,0.00,VWS V14.01,2013-10-09 01:18:00,
2013-10-08 21:23:00,80.6,73.1,29.93,NW,317,2.0,3.0,78,0.00,,---,0.00,VWS V14.01,2013-10-09 01:23:00,
2013-10-08 21:28:00,80.5,73.0,29.93,NW,309,0.0,3.0,78,0.00,,---,0.00,VWS V14.01,2013-10-09 01:28:00,
2013-10-08 21:30:00,82.5,73.8,29.91,NW,309,0.0,4.0,75,0.00,,---,0.00,VWS V15.00,2013-10-09 01:30:00,
2013-10-08 21:33:00,80.4,73.3,29.93,NNW,341,0.0,2.0,79,0.00,,---,0.00,VWS V14.01,2013-10-09 01:33:00,
2013-10-08 21:38:00,80.3,73.2,29.93,NNW,342,1.0,2.0,79,0.00,,---,0.00,VWS V14.01,2013-10-09 01:38:00,
2013-10-08 21:43:00,80.1,73.0,29.93,WNW,299,0.0,4.0,79,0.00,,---,0.00,VWS V14.01,2013-10-09 01:43:00,
2013-10-08 21:45:00,82.0,73.3,29.92,NW,319,3.0,6.0,75,0.00,,---,0.00,VWS V15.00,2013-10-09 01:45:00,
2013-10-08 21:48:00,80.0,73.3,29.93,NW,317,2.0,3.0,80,0.00,,---,0.00,VWS V14.01,2013-10-09 01:48:00,
2013-10-08 21:54:00,79.9,73.2,29.93,NW,307,1.0,3.0,80,0.00,,---,0.00,VWS V14.01,2013-10-09 01:54:00,
2013-10-08 21:59:00,79.7,73.0,29.93,NW,320,2.0,3.0,80,0.00,,---,0.00,VWS V14.01,2013-10-09 01:59:00,
2013-10-08 22:00:00,81.4,72.7,29.92,NW,321,1.0,4.0,75,0.00,,---,0.00,VWS V15.00,2013-10-09 02:00:00,
2013-10-08 22:04:00,79.6,72.9,29.93,NW,314,0.0,1.0,80,0.00,,---,0.00,VWS V14.01,2013-10-09 02:04:00,
2013-10-08 22:09:00,79.4,73.1,29.93,West,281,1.0,3.0,81,0.00,,---,0.00,VWS V14.01,2013-10-09 02:09:00,
2013-10-08 22:14:00,79.3,73.0,29.94,WNW,302,0.0,3.0,81,0.00,,---,0.00,VWS V14.01,2013-10-09 02:14:00,
2013-10-08 22:15:00,80.9,73.0,29.93,NW,315,1.0,5.0,77,0.00,,---,0.00,VWS V15.00,2013-10-09 02:15:00,
2013-10-08 22:19:00,79.2,73.2,29.94,NW,311,0.0,2.0,82,0.00,,---,0.00,VWS V14.01,2013-10-09 02:19:00,
2013-10-08 22:24:00,79.1,73.1,29.94,NW,318,1.0,2.0,82,0.00,,---,0.00,VWS V14.01,2013-10-09 02:24:00,
2013-10-08 22:29:00,79.1,73.1,29.94,NW,314,3.0,3.0,82,0.00,,---,0.00,VWS V14.01,2013-10-09 02:29:00,
2013-10-08 22:30:00,80.5,73.0,29.93,NW,310,0.0,4.0,78,0.00,,---,0.00,VWS V15.00,2013-10-09 02:30:00,
2013-10-08 22:34:00,79.1,73.1,29.94,NW,305,2.0,3.0,82,0.00,,---,0.00,VWS V14.01,2013-10-09 02:34:00,
2013-10-08 22:39:00,79.1,72.8,29.94,NW,307,2.0,5.0,81,0.00,,---,0.00,VWS V14.01,2013-10-09 02:39:00,
2013-10-08 22:44:00,79.0,72.7,29.94,WNW,302,0.0,5.0,81,0.00,,---,0.00,VWS V14.01,2013-10-09 02:44:00,
2013-10-08 22:45:00,80.0,72.9,29.93,WNW,285,1.0,4.0,79,0.00,,---,0.00,VWS V15.00,2013-10-09 02:45:00,
2013-10-08 22:49:00,78.9,72.6,29.94,NW,326,2.0,5.0,81,0.00,,---,0.00,VWS V14.01,2013-10-09 02:49:00,
2013-10-08 22:54:00,78.8,72.1,29.94,NW,307,0.0,5.0,80,0.00,,---,0.00,VWS V14.01,2013-10-09 02:54:00,
2013-10-08 22:59:00,78.7,72.0,29.94,NW,326,0.0,5.0,80,0.00,,---,0.00,VWS V14.01,2013-10-09 02:59:00,
2013-10-08 23:00:00,79.7,73.0,29.93,NW,314,0.0,3.0,80,0.00,,---,0.00,VWS V15.00,2013-10-09 03:00:00,
2013-10-08 23:04:00,78.5,72.2,29.94,NW,314,3.0,3.0,81,0.00,,---,0.00,VWS V14.01,2013-10-09 03:04:00,
2013-10-08 23:09:00,78.4,72.1,29.95,NW,323,1.0,3.0,81,0.00,,---,0.00,VWS V14.01,2013-10-09 03:09:00,
2013-10-08 23:14:00,78.3,72.0,29.94,WNW,301,2.0,4.0,81,0.00,,---,0.00,VWS V14.01,2013-10-09 03:14:00,
2013-10-08 23:15:00,79.2,72.9,29.94,NW,307,0.0,3.0,81,0.00,,---,0.00,VWS V15.00,2013-10-09 03:15:00,
2013-10-08 23:19:00,78.1,72.2,29.94,WNW,295,1.0,6.0,82,0.00,,---,0.00,VWS V14.01,2013-10-09 03:19:00,
2013-10-08 23:24:00,78.1,71.8,29.94,WNW,303,0.0,6.0,81,0.00,,---,0.00,VWS V14.01,2013-10-09 03:24:00,
2013-10-08 23:29:00,78.0,72.1,29.94,NW,323,0.0,6.0,82,0.00,,---,0.00,VWS V14.01,2013-10-09 03:29:00,
2013-10-08 23:30:00,79.1,73.1,29.94,NW,314,0.0,3.0,82,0.00,,---,0.00,VWS V15.00,2013-10-09 03:30:00,
2013-10-08 23:34:00,77.9,72.0,29.94,WSW,247,1.0,3.0,82,0.00,,---,0.00,VWS V14.01,2013-10-09 03:34:00,
2013-10-08 23:40:00,77.8,71.9,29.94,WNW,299,0.0,3.0,82,0.00,,---,0.00,VWS V14.01,2013-10-09 03:40:00,
2013-10-08 23:45:00,77.7,71.8,29.94,WNW,290,1.0,3.0,82,0.00,,---,0.00,VWS V14.01,2013-10-09 03:45:00,
2013-10-08 23:50:00,77.7,71.8,29.94,NW,307,0.0,2.0,82,0.00,,---,0.00,VWS V14.01,2013-10-09 03:50:00,
2013-10-08 23:55:00,77.6,71.7,29.94,NW,307,0.0,2.0,82,0.00,,---,0.00,VWS V14.01,2013-10-09 03:55:00,